Time;durP1;ratioP1;P1;durP2;ratioP2;P2;SDS_P1;SDS_P2;PMS_P1;PMS_P2;Temp;Humidity;BMP_temperature;BMP_pressure;BME280_temperature;BME280_humidity;BME280_pressure;Samples;Min_cycle;Max_cycle;Signal;HPM_P1;HPM_P2
2024/02/06 00:02:14;;;;;;;;;;;18.80;67.00;;;;;;5024519;28;1522;-69
2024/02/06 00:04:39;;;;;;;;;;;18.80;67.10;;;;;;5026337;28;883;-70
2024/02/06 00:07:05;;;;;;;;;;;18.80;67.20;;;;;;5034647;28;1022;-68
2024/02/06 00:09:31;;;;;;;;;;;18.80;68.10;;;;;;5020945;28;1226;-69
2024/02/06 00:11:56;;;;;;;;;;;18.80;67.20;;;;;;5023063;28;1805;-70
2024/02/06 00:14:22;;;;;;;;;;;18.80;67.30;;;;;;5022682;28;1967;-70
2024/02/06 00:16:47;;;;;;;;;;;18.80;67.30;;;;;;5023717;28;1241;-70
2024/02/06 00:19:13;;;;;;;;;;;18.80;67.20;;;;;;5020586;28;1351;-70
2024/02/06 00:21:38;;;;;;;;;;;18.80;67.20;;;;;;5020586;28;1464;-70
2024/02/06 00:24:04;;;;;;;;;;;18.80;67.20;;;;;;5021993;28;1472;-70
2024/02/06 00:26:29;;;;;;;;;;;18.80;67.30;;;;;;5018898;28;1360;-70
2024/02/06 00:28:55;;;;;;;;;;;18.80;67.10;;;;;;5006020;28;1383;-69
2024/02/06 00:31:20;;;;;;;;;;;18.80;67.20;;;;;;5005624;28;1293;-70
2024/02/06 00:33:46;;;;;;;;;;;18.80;67.20;;;;;;5020675;28;1894;-70
2024/02/06 00:36:11;;;;;;;;;;;18.80;67.30;;;;;;5019282;28;1557;-70
2024/02/06 00:38:37;;;;;;;;;;;18.80;67.20;;;;;;5020201;28;1319;-69
2024/02/06 00:41:02;;;;;;;;;;;18.80;67.20;;;;;;5019073;28;1538;-70
2024/02/06 00:43:28;;;;;;;;;;;18.80;67.30;;;;;;5018393;28;1345;-70
2024/02/06 00:45:53;;;;;;;;;;;18.80;67.30;;;;;;5020329;28;1483;-70
2024/02/06 00:48:19;;;;;;;;;;;18.80;67.30;;;;;;5017485;28;1273;-70
2024/02/06 00:50:45;;;;;;;;;;;18.80;67.40;;;;;;5017822;28;1220;-70
2024/02/06 00:53:11;;;;;;;;;;;18.80;67.40;;;;;;5017409;28;1894;-70
2024/02/06 00:55:36;;;;;;;;;;;18.80;67.60;;;;;;5022560;28;1370;-70
2024/02/06 00:58:02;;;;;;;;;;;18.80;67.80;;;;;;5020337;28;1273;-70
2024/02/06 01:00:27;;;;;;;;;;;18.70;68.00;;;;;;5049753;28;1573;-70
2024/02/06 01:02:53;;;;;;;;;;;18.80;68.00;;;;;;5018589;28;1489;-70
2024/02/06 01:05:18;;;;;;;;;;;18.80;68.20;;;;;;5020088;28;1221;-70
2024/02/06 01:07:46;;;;;;;;;;;18.80;68.40;;;;;;5018682;28;1434;-69
2024/02/06 01:10:11;;;;;;;;;;;18.80;68.60;;;;;;5017342;28;1327;-70
2024/02/06 01:12:37;;;;;;;;;;;18.80;68.60;;;;;;5022644;28;2796;-68
2024/02/06 01:15:03;;;;;;;;;;;18.80;68.70;;;;;;5021140;28;1528;-72
2024/02/06 01:17:28;;;;;;;;;;;18.80;69.20;;;;;;5020366;28;1268;-71
2024/02/06 01:19:53;;;;;;;;;;;18.80;69.50;;;;;;5017984;28;916;-71
2024/02/06 01:22:19;;;;;;;;;;;18.80;69.50;;;;;;5026315;28;1363;-69
2024/02/06 01:24:44;;;;;;;;;;;18.80;69.20;;;;;;5017900;28;1590;-71
2024/02/06 01:27:11;;;;;;;;;;;18.80;69.30;;;;;;5026380;28;1374;-71
2024/02/06 01:29:37;;;;;;;;;;;18.80;69.50;;;;;;5017016;28;1416;-71
2024/02/06 01:32:03;;;;;;;;;;;18.80;69.50;;;;;;5018761;28;1490;-72
2024/02/06 01:34:28;;;;;;;;;;;18.70;69.40;;;;;;5021168;28;1906;-72
2024/02/06 01:36:54;;;;;;;;;;;18.70;69.40;;;;;;5017116;28;1462;-71
2024/02/06 01:39:19;;;;;;;;;;;18.70;69.50;;;;;;5018531;28;1395;-71
2024/02/06 01:41:45;;;;;;;;;;;18.70;69.60;;;;;;5000546;28;1489;-71
2024/02/06 01:44:10;;;;;;;;;;;18.70;69.70;;;;;;5017745;28;1602;-72
2024/02/06 01:46:36;;;;;;;;;;;18.70;69.60;;;;;;5019765;28;1532;-70
2024/02/06 01:49:04;;;;;;;;;;;18.70;69.70;;;;;;5020258;28;1807;-71
2024/02/06 01:51:31;;;;;;;;;;;18.70;69.70;;;;;;5019926;28;1502;-70
2024/02/06 01:53:57;;;;;;;;;;;18.70;69.70;;;;;;5017844;28;1945;-69
2024/02/06 01:56:22;;;;;;;;;;;18.70;69.80;;;;;;5019785;28;1258;-70
2024/02/06 01:58:48;;;;;;;;;;;18.70;69.90;;;;;;5014858;28;1372;-70
2024/02/06 02:01:13;;;;;;;;;;;18.70;70.00;;;;;;5021364;28;1233;-70
2024/02/06 02:03:39;;;;;;;;;;;18.70;70.00;;;;;;5020997;28;1496;-70
2024/02/06 02:06:05;;;;;;;;;;;18.70;69.80;;;;;;5022462;28;1538;-73
2024/02/06 02:08:34;;;;;;;;;;;18.70;69.80;;;;;;5024760;28;1379;-74
2024/02/06 02:11:00;;;;;;;;;;;18.70;69.60;;;;;;5026707;28;1502;-68
2024/02/06 02:13:26;;;;;;;;;;;18.70;69.50;;;;;;5028056;28;1910;-69
2024/02/06 02:15:52;;;;;;;;;;;18.70;69.50;;;;;;5022408;28;1093;-71
2024/02/06 02:18:18;;;;;;;;;;;18.70;69.50;;;;;;5014332;28;1295;-70
2024/02/06 02:20:43;;;;;;;;;;;18.70;69.30;;;;;;5016614;28;1360;-69
2024/02/06 02:23:08;;;;;;;;;;;18.80;69.50;;;;;;5015556;28;1139;-70
2024/02/06 02:25:34;;;;;;;;;;;18.80;69.40;;;;;;5019024;28;1265;-70
2024/02/06 02:28:00;;;;;;;;;;;18.80;69.40;;;;;;5021980;28;1304;-70
2024/02/06 02:30:25;;;;;;;;;;;18.80;69.10;;;;;;5023866;28;1308;-70
2024/02/06 02:32:51;;;;;;;;;;;18.80;69.00;;;;;;5020352;28;1966;-70
2024/02/06 02:35:17;;;;;;;;;;;18.80;69.10;;;;;;5022628;28;1287;-70
2024/02/06 02:37:42;;;;;;;;;;;18.80;69.10;;;;;;5022250;28;1444;-69
2024/02/06 02:40:09;;;;;;;;;;;18.80;69.00;;;;;;5023513;28;1253;-70
2024/02/06 02:42:34;;;;;;;;;;;18.80;68.90;;;;;;5021191;28;1638;-70
2024/02/06 02:45:00;;;;;;;;;;;18.80;68.90;;;;;;5024605;28;1261;-70
2024/02/06 02:47:25;;;;;;;;;;;18.80;68.90;;;;;;5021886;28;1660;-70
2024/02/06 02:49:50;;;;;;;;;;;18.80;69.00;;;;;;5021760;28;1453;-70
2024/02/06 02:52:16;;;;;;;;;;;18.80;69.40;;;;;;5018802;28;1420;-70
2024/02/06 02:54:41;;;;;;;;;;;18.80;69.20;;;;;;5021877;28;1890;-70
2024/02/06 02:57:07;;;;;;;;;;;18.70;69.10;;;;;;5023238;28;1321;-70
2024/02/06 02:59:32;;;;;;;;;;;18.80;69.30;;;;;;5021790;28;1259;-70
2024/02/06 03:01:58;;;;;;;;;;;18.80;69.30;;;;;;5021064;28;1467;-70
2024/02/06 03:04:23;;;;;;;;;;;18.80;69.60;;;;;;5026238;28;1571;-70
2024/02/06 03:06:49;;;;;;;;;;;18.80;69.20;;;;;;5021468;28;1645;-70
2024/02/06 03:09:18;;;;;;;;;;;18.70;67.70;;;;;;5030690;28;1276;-70
2024/02/06 03:11:44;;;;;;;;;;;18.70;67.10;;;;;;5021815;28;1279;-70
2024/02/06 03:14:09;;;;;;;;;;;18.70;67.10;;;;;;5019244;28;1890;-70
2024/02/06 03:16:35;;;;;;;;;;;18.60;67.30;;;;;;5022434;28;1587;-70
2024/02/06 03:19:00;;;;;;;;;;;18.60;67.40;;;;;;5019978;28;1755;-70
2024/02/06 03:21:26;;;;;;;;;;;18.50;67.30;;;;;;5019098;28;1250;-70
2024/02/06 03:23:51;;;;;;;;;;;18.50;67.30;;;;;;5020709;28;1314;-69
2024/02/06 03:26:17;;;;;;;;;;;18.50;67.30;;;;;;5023021;28;1504;-69
2024/02/06 03:28:42;;;;;;;;;;;18.50;67.40;;;;;;5023053;28;1544;-70
2024/02/06 03:31:08;;;;;;;;;;;18.50;67.40;;;;;;5021861;28;1493;-70
2024/02/06 03:33:35;;;;;;;;;;;18.40;67.30;;;;;;5020232;28;1953;-69
2024/02/06 03:36:01;;;;;;;;;;;18.40;67.30;;;;;;5025130;28;1687;-70
2024/02/06 03:38:26;;;;;;;;;;;18.40;67.40;;;;;;5020966;28;1382;-68
2024/02/06 03:40:52;;;;;;;;;;;18.40;67.40;;;;;;5034301;28;930;-68
2024/02/06 03:43:17;;;;;;;;;;;18.40;67.40;;;;;;5033053;28;875;-68
2024/02/06 03:45:43;;;;;;;;;;;18.40;67.40;;;;;;5023284;28;1584;-70
2024/02/06 03:48:10;;;;;;;;;;;18.40;67.40;;;;;;5017788;28;1405;-71
2024/02/06 03:50:35;;;;;;;;;;;18.30;67.30;;;;;;5006724;28;1283;-70
2024/02/06 03:53:02;;;;;;;;;;;18.30;67.30;;;;;;5022577;28;1984;-71
2024/02/06 03:55:28;;;;;;;;;;;18.30;67.40;;;;;;5019647;28;1574;-70
2024/02/06 03:57:54;;;;;;;;;;;18.30;67.30;;;;;;5021139;28;1443;-70
2024/02/06 04:00:19;;;;;;;;;;;18.30;67.30;;;;;;5020683;28;1341;-71
2024/02/06 04:02:45;;;;;;;;;;;18.30;67.30;;;;;;5020975;28;1467;-71
2024/02/06 04:05:10;;;;;;;;;;;18.30;67.30;;;;;;5019310;28;1349;-71
2024/02/06 04:07:36;;;;;;;;;;;18.20;67.30;;;;;;5019009;28;1276;-71
2024/02/06 04:10:01;;;;;;;;;;;18.30;67.30;;;;;;5019048;28;1280;-71
2024/02/06 04:12:27;;;;;;;;;;;18.20;67.30;;;;;;5021316;28;1253;-71
2024/02/06 04:14:52;;;;;;;;;;;18.20;67.30;;;;;;5022024;28;1985;-71
2024/02/06 04:17:18;;;;;;;;;;;18.20;67.20;;;;;;5019258;28;1344;-71
2024/02/06 04:19:44;;;;;;;;;;;18.20;67.20;;;;;;5020513;28;1164;-71
2024/02/06 04:22:09;;;;;;;;;;;18.20;67.20;;;;;;5021469;28;918;-71
2024/02/06 04:24:35;;;;;;;;;;;18.20;67.20;;;;;;5020451;28;1238;-71
2024/02/06 04:27:00;;;;;;;;;;;18.20;67.20;;;;;;5020603;28;1176;-71
2024/02/06 04:29:25;;;;;;;;;;;18.20;67.20;;;;;;5020501;28;1575;-71
2024/02/06 04:31:51;;;;;;;;;;;18.20;67.20;;;;;;5023105;28;1269;-69
2024/02/06 04:34:16;;;;;;;;;;;18.20;67.20;;;;;;5023943;28;1961;-70
2024/02/06 04:36:42;;;;;;;;;;;18.20;67.20;;;;;;5026830;28;891;-69
2024/02/06 04:39:07;;;;;;;;;;;18.20;67.20;;;;;;5029928;28;1248;-69
2024/02/06 04:41:34;;;;;;;;;;;18.20;67.20;;;;;;5031416;28;931;-70
2024/02/06 04:44:00;;;;;;;;;;;18.20;67.20;;;;;;5026924;28;892;-69
2024/02/06 04:46:25;;;;;;;;;;;18.20;67.20;;;;;;5025970;28;1032;-69
2024/02/06 04:48:51;;;;;;;;;;;18.20;67.20;;;;;;5030541;28;1272;-69
2024/02/06 04:51:16;;;;;;;;;;;18.10;67.10;;;;;;5033080;28;837;-69
2024/02/06 04:53:42;;;;;;;;;;;18.10;67.10;;;;;;5029460;28;1863;-69
2024/02/06 04:56:07;;;;;;;;;;;18.20;67.20;;;;;;5020912;28;809;-69
2024/02/06 04:58:33;;;;;;;;;;;18.10;67.80;;;;;;5029916;28;1245;-72
2024/02/06 05:00:58;;;;;;;;;;;18.10;67.10;;;;;;5020491;28;1262;-70
2024/02/06 05:03:24;;;;;;;;;;;18.10;67.10;;;;;;5029022;28;994;-69
2024/02/06 05:05:49;;;;;;;;;;;18.10;67.10;;;;;;5022283;28;769;-70
2024/02/06 05:08:15;;;;;;;;;;;18.10;67.10;;;;;;5022047;28;1462;-70
2024/02/06 05:10:41;;;;;;;;;;;18.10;67.10;;;;;;5016526;28;1703;-73
2024/02/06 05:13:07;;;;;;;;;;;18.10;67.10;;;;;;5017794;28;1934;-71
2024/02/06 05:15:33;;;;;;;;;;;18.10;67.00;;;;;;5015652;28;1561;-72
2024/02/06 05:17:58;;;;;;;;;;;18.10;67.00;;;;;;5026544;28;1638;-72
2024/02/06 05:20:23;;;;;;;;;;;18.10;66.90;;;;;;5026410;28;1651;-71
2024/02/06 05:22:49;;;;;;;;;;;18.20;66.90;;;;;;5019501;28;1539;-72
2024/02/06 05:25:14;;;;;;;;;;;18.20;66.70;;;;;;5019532;28;1284;-72
2024/02/06 05:27:40;;;;;;;;;;;18.20;66.60;;;;;;5016820;28;1581;-72
2024/02/06 05:30:06;;;;;;;;;;;18.20;66.50;;;;;;5020483;28;1759;-72
2024/02/06 05:32:33;;;;;;;;;;;18.20;66.40;;;;;;5021930;28;1575;-70
2024/02/06 05:34:59;;;;;;;;;;;18.30;66.30;;;;;;5018128;28;1898;-71
2024/02/06 05:37:25;;;;;;;;;;;18.30;66.20;;;;;;5020657;28;1524;-71
2024/02/06 05:39:50;;;;;;;;;;;18.30;66.10;;;;;;5027120;28;1276;-70
2024/02/06 05:42:16;;;;;;;;;;;18.30;66.00;;;;;;5019372;28;1594;-71
2024/02/06 05:44:41;;;;;;;;;;;18.40;66.00;;;;;;5018615;28;1259;-71
2024/02/06 05:47:07;;;;;;;;;;;18.40;65.90;;;;;;5017121;28;1508;-70
2024/02/06 05:49:33;;;;;;;;;;;18.40;65.80;;;;;;5022672;28;1938;-69
2024/02/06 05:51:59;;;;;;;;;;;18.40;65.70;;;;;;5019041;28;1903;-69
2024/02/06 05:54:25;;;;;;;;;;;18.40;65.60;;;;;;5027104;28;1930;-69
2024/02/06 05:56:50;;;;;;;;;;;18.40;65.60;;;;;;5021563;28;1499;-69
2024/02/06 05:59:15;;;;;;;;;;;18.50;65.60;;;;;;5019094;28;1411;-69
2024/02/06 06:01:41;;;;;;;;;;;18.50;65.50;;;;;;5016879;28;1411;-69
2024/02/06 06:04:06;;;;;;;;;;;18.50;65.40;;;;;;5018582;28;1270;-72
2024/02/06 06:06:32;;;;;;;;;;;18.50;65.40;;;;;;5018167;28;1476;-71
2024/02/06 06:08:59;;;;;;;;;;;18.50;65.30;;;;;;5016018;28;1391;-71
2024/02/06 06:11:24;;;;;;;;;;;18.50;65.30;;;;;;5019252;28;1250;-71
2024/02/06 06:13:50;;;;;;;;;;;18.50;65.20;;;;;;5017474;28;1902;-70
2024/02/06 06:16:15;;;;;;;;;;;18.50;65.10;;;;;;5018417;28;1412;-70
2024/02/06 06:18:41;;;;;;;;;;;18.50;65.10;;;;;;5018080;28;1435;-71
2024/02/06 06:21:06;;;;;;;;;;;18.60;65.10;;;;;;5018309;28;1736;-71
2024/02/06 06:23:32;;;;;;;;;;;18.50;65.00;;;;;;5017964;28;1507;-70
2024/02/06 06:25:57;;;;;;;;;;;18.60;65.00;;;;;;5020210;28;1557;-70
2024/02/06 06:28:23;;;;;;;;;;;18.50;65.00;;;;;;5020324;28;1597;-72
2024/02/06 06:30:48;;;;;;;;;;;18.60;65.70;;;;;;5021314;28;1523;-71
2024/02/06 06:33:14;;;;;;;;;;;18.50;64.90;;;;;;5017281;28;1894;-71
2024/02/06 06:35:39;;;;;;;;;;;18.50;64.90;;;;;;5018215;28;1259;-70
2024/02/06 06:38:05;;;;;;;;;;;18.50;64.90;;;;;;5019620;28;1313;-71
2024/02/06 06:40:30;;;;;;;;;;;18.50;65.00;;;;;;5018635;28;1252;-71
2024/02/06 06:42:56;;;;;;;;;;;18.50;65.00;;;;;;5017938;28;1557;-71
2024/02/06 06:45:21;;;;;;;;;;;18.50;65.00;;;;;;5019175;28;1435;-71
2024/02/06 06:47:47;;;;;;;;;;;18.50;65.00;;;;;;5026873;28;1623;-71
2024/02/06 06:50:12;;;;;;;;;;;18.50;65.00;;;;;;5019057;28;1551;-71
2024/02/06 06:52:41;;;;;;;;;;;18.50;65.00;;;;;;5018579;28;1287;-69
2024/02/06 06:55:08;;;;;;;;;;;18.50;65.10;;;;;;5022495;28;1949;-71
2024/02/06 06:57:35;;;;;;;;;;;18.50;65.10;;;;;;5022478;28;1447;-72
2024/02/06 07:00:05;;;;;;;;;;;18.50;65.10;;;;;;5018486;28;1624;-71
2024/02/06 07:02:30;;;;;;;;;;;18.50;65.00;;;;;;5016950;28;1471;-72
2024/02/06 07:04:55;;;;;;;;;;;18.50;64.10;;;;;;5016271;28;1360;-72
2024/02/06 07:07:21;;;;;;;;;;;18.50;63.30;;;;;;5016638;28;1657;-72
2024/02/06 07:09:46;;;;;;;;;;;18.40;63.10;;;;;;5018324;28;1463;-71
2024/02/06 07:12:12;;;;;;;;;;;18.40;63.10;;;;;;5017045;28;1460;-70
2024/02/06 07:14:37;;;;;;;;;;;18.40;63.20;;;;;;5021124;28;1898;-70
2024/02/06 07:17:03;;;;;;;;;;;18.40;63.40;;;;;;5021886;28;1658;-72
2024/02/06 07:19:29;;;;;;;;;;;18.40;63.50;;;;;;5018615;28;1686;-73
2024/02/06 07:21:55;;;;;;;;;;;18.40;63.70;;;;;;5028760;28;1009;-72
2024/02/06 07:24:21;;;;;;;;;;;18.40;63.90;;;;;;5026099;28;1091;-72
2024/02/06 07:26:47;;;;;;;;;;;18.40;64.00;;;;;;5009477;28;1373;-73
2024/02/06 07:29:12;;;;;;;;;;;18.40;64.10;;;;;;5020318;28;1384;-73
2024/02/06 07:31:38;;;;;;;;;;;18.40;64.30;;;;;;5020599;28;1639;-73
2024/02/06 07:34:03;;;;;;;;;;;18.40;64.30;;;;;;5024719;28;1894;-73
2024/02/06 07:36:29;;;;;;;;;;;18.40;64.40;;;;;;5023675;28;1359;-73
2024/02/06 07:38:55;;;;;;;;;;;18.40;64.40;;;;;;5021001;28;1712;-72
2024/02/06 07:41:20;;;;;;;;;;;18.40;64.50;;;;;;5022845;28;1441;-71
2024/02/06 07:43:46;;;;;;;;;;;18.40;64.50;;;;;;5020121;28;1467;-72
2024/02/06 07:46:12;;;;;;;;;;;18.40;64.70;;;;;;5018500;28;1310;-71
2024/02/06 07:48:37;;;;;;;;;;;18.40;64.60;;;;;;5021277;28;1245;-74
2024/02/06 07:51:03;;;;;;;;;;;18.40;64.70;;;;;;5020476;28;1296;-73
2024/02/06 07:53:28;;;;;;;;;;;18.40;64.70;;;;;;5019003;28;1906;-73
2024/02/06 07:55:54;;;;;;;;;;;18.40;64.80;;;;;;5022689;28;1198;-72
2024/02/06 07:58:19;;;;;;;;;;;18.40;64.80;;;;;;5020917;28;1219;-71
2024/02/06 08:00:45;;;;;;;;;;;18.40;64.90;;;;;;5033847;28;1194;-71
2024/02/06 08:03:11;;;;;;;;;;;18.30;64.80;;;;;;5035006;28;942;-71
2024/02/06 08:05:37;;;;;;;;;;;18.30;64.80;;;;;;5035342;28;1146;-71
2024/02/06 08:08:04;;;;;;;;;;;18.30;64.90;;;;;;5035179;28;1307;-71
2024/02/06 08:10:29;;;;;;;;;;;18.30;64.90;;;;;;5035235;28;836;-70
2024/02/06 08:12:56;;;;;;;;;;;18.30;64.90;;;;;;5029962;28;1919;-72
2024/02/06 08:15:22;;;;;;;;;;;18.30;65.00;;;;;;5033736;28;907;-71
2024/02/06 08:17:47;;;;;;;;;;;18.30;65.00;;;;;;5033779;28;1320;-73
2024/02/06 08:20:13;;;;;;;;;;;18.30;65.00;;;;;;5022104;28;1481;-73
2024/02/06 08:22:38;;;;;;;;;;;18.30;65.10;;;;;;5021325;28;1184;-73
2024/02/06 08:25:07;;;;;;;;;;;18.30;65.10;;;;;;5019714;28;1256;-73
2024/02/06 08:27:33;;;;;;;;;;;18.30;65.10;;;;;;5020686;28;1959;-72
2024/02/06 08:29:59;;;;;;;;;;;18.30;65.10;;;;;;5019017;28;1436;-72
2024/02/06 08:32:24;;;;;;;;;;;18.30;65.10;;;;;;5020221;28;1530;-72
2024/02/06 08:34:50;;;;;;;;;;;18.30;65.10;;;;;;5020159;28;1953;-73
2024/02/06 08:37:16;;;;;;;;;;;18.30;65.20;;;;;;5020747;28;1478;-73
2024/02/06 08:39:41;;;;;;;;;;;18.30;65.40;;;;;;5018973;28;1495;-73
2024/02/06 08:42:07;;;;;;;;;;;18.30;65.20;;;;;;5020038;28;1524;-72
2024/02/06 08:44:32;;;;;;;;;;;18.30;65.20;;;;;;5017584;28;1472;-73
2024/02/06 08:46:58;;;;;;;;;;;18.20;65.10;;;;;;5021508;28;1538;-73
2024/02/06 08:49:24;;;;;;;;;;;18.20;65.20;;;;;;5016948;28;1375;-72
2024/02/06 08:51:51;;;;;;;;;;;18.20;65.10;;;;;;5019411;28;1312;-74
2024/02/06 08:54:17;;;;;;;;;;;18.30;65.20;;;;;;5017853;28;1962;-72
2024/02/06 08:56:42;;;;;;;;;;;18.20;65.20;;;;;;5019588;28;1347;-73
2024/02/06 08:59:09;;;;;;;;;;;18.20;65.10;;;;;;5022252;28;1741;-73
2024/02/06 09:01:35;;;;;;;;;;;18.30;65.20;;;;;;5018370;28;1436;-73
2024/02/06 09:04:04;;;;;;;;;;;18.20;65.20;;;;;;5019798;28;1378;-72
2024/02/06 09:06:30;;;;;;;;;;;18.20;65.20;;;;;;5020147;28;1522;-73
2024/02/06 09:08:58;;;;;;;;;;;18.20;65.20;;;;;;5016734;28;1385;-72
2024/02/06 09:11:26;;;;;;;;;;;18.20;65.20;;;;;;5019066;28;1456;-72
2024/02/06 09:13:53;;;;;;;;;;;18.20;65.20;;;;;;5017803;28;1902;-73
2024/02/06 09:16:22;;;;;;;;;;;18.20;65.20;;;;;;5001029;28;1482;-73
2024/02/06 09:18:51;;;;;;;;;;;18.20;65.20;;;;;;5019198;28;1629;-72
2024/02/06 09:21:16;;;;;;;;;;;18.20;65.20;;;;;;5015174;28;1618;-72
2024/02/06 09:23:43;;;;;;;;;;;18.20;65.20;;;;;;5018501;28;1465;-73
2024/02/06 09:26:09;;;;;;;;;;;18.20;65.20;;;;;;5018621;28;1542;-72
2024/02/06 09:28:35;;;;;;;;;;;18.20;65.20;;;;;;5019439;28;1363;-72
2024/02/06 09:31:00;;;;;;;;;;;18.20;65.20;;;;;;5018363;28;1283;-72
2024/02/06 09:33:26;;;;;;;;;;;18.30;65.30;;;;;;5018589;28;1953;-72
2024/02/06 09:35:52;;;;;;;;;;;18.20;65.20;;;;;;5016549;28;1259;-71
2024/02/06 09:38:17;;;;;;;;;;;18.20;65.20;;;;;;5016785;28;1452;-71
2024/02/06 09:40:44;;;;;;;;;;;18.20;65.20;;;;;;5017321;28;1534;-72
2024/02/06 09:43:09;;;;;;;;;;;18.20;65.90;;;;;;5021523;28;1542;-72
2024/02/06 09:45:35;;;;;;;;;;;18.20;65.10;;;;;;5017644;28;1681;-72
2024/02/06 09:48:00;;;;;;;;;;;18.20;65.10;;;;;;5017340;28;1321;-72
2024/02/06 09:50:26;;;;;;;;;;;18.20;65.10;;;;;;5016256;28;1018;-72
2024/02/06 09:52:51;;;;;;;;;;;18.30;65.10;;;;;;5018701;28;1314;-70
2024/02/06 09:55:16;;;;;;;;;;;18.30;65.00;;;;;;5017298;28;1931;-70
2024/02/06 09:57:42;;;;;;;;;;;18.30;65.00;;;;;;5016625;28;1292;-70
2024/02/06 10:00:08;;;;;;;;;;;18.30;64.90;;;;;;5018906;28;1369;-70
2024/02/06 10:02:34;;;;;;;;;;;18.30;64.90;;;;;;5018476;28;1389;-70
2024/02/06 10:04:59;;;;;;;;;;;18.30;64.80;;;;;;5019328;28;1502;-71
2024/02/06 10:07:25;;;;;;;;;;;18.40;64.80;;;;;;5018400;28;1543;-70
2024/02/06 10:09:51;;;;;;;;;;;18.40;64.80;;;;;;5017989;28;1572;-71
2024/02/06 10:12:16;;;;;;;;;;;18.40;64.80;;;;;;5018764;28;1209;-71
2024/02/06 10:14:42;;;;;;;;;;;18.40;64.70;;;;;;5022132;28;1898;-70
2024/02/06 10:17:09;;;;;;;;;;;18.40;64.70;;;;;;5018950;28;1969;-71
2024/02/06 10:19:35;;;;;;;;;;;18.40;64.70;;;;;;5020014;28;1299;-71
2024/02/06 10:22:01;;;;;;;;;;;18.40;64.80;;;;;;5017503;28;1277;-70
2024/02/06 10:24:29;;;;;;;;;;;18.40;64.80;;;;;;5026479;28;1539;-70
2024/02/06 10:26:58;;;;;;;;;;;18.40;64.80;;;;;;5019395;28;1552;-70
2024/02/06 10:29:24;;;;;;;;;;;18.30;64.80;;;;;;5018801;28;1380;-70
2024/02/06 10:31:51;;;;;;;;;;;18.30;65.50;;;;;;5016807;28;1351;-71
2024/02/06 10:34:16;;;;;;;;;;;18.30;64.80;;;;;;5019847;28;1906;-70
2024/02/06 10:36:42;;;;;;;;;;;18.30;64.80;;;;;;5018118;28;1431;-71
2024/02/06 10:39:10;;;;;;;;;;;18.30;64.80;;;;;;5025493;28;1443;-71
2024/02/06 10:41:36;;;;;;;;;;;18.30;64.90;;;;;;5027095;28;1216;-70
2024/02/06 10:44:11;;;;;;;;;;;18.30;64.80;;;;;;5016185;28;1355;-70
2024/02/06 10:46:39;;;;;;;;;;;18.30;64.80;;;;;;5016900;28;1319;-70
2024/02/06 10:49:05;;;;;;;;;;;18.30;64.80;;;;;;5018769;28;1619;-70
2024/02/06 10:51:30;;;;;;;;;;;18.30;64.70;;;;;;5023062;28;1444;-70
2024/02/06 10:53:57;;;;;;;;;;;18.40;64.80;;;;;;5022297;28;1899;-71
2024/02/06 10:56:22;;;;;;;;;;;18.40;64.70;;;;;;5021557;28;1332;-70
2024/02/06 10:59:06;;;;;;;;;;;18.40;64.70;;;;;;5021478;28;1486;-72
2024/02/06 11:01:34;;;;;;;;;;;18.40;64.70;;;;;;5023065;28;1077;-72
2024/02/06 11:04:00;;;;;;;;;;;18.30;64.50;;;;;;5021664;28;1269;-72
2024/02/06 11:06:30;;;;;;;;;;;18.40;64.50;;;;;;5020829;28;1080;-72
2024/02/06 11:08:56;;;;;;;;;;;18.40;64.50;;;;;;5005517;28;1296;-71
2024/02/06 11:11:24;;;;;;;;;;;18.40;64.50;;;;;;5019387;28;1262;-71
2024/02/06 11:13:50;;;;;;;;;;;18.40;64.40;;;;;;5019988;28;2035;-72
2024/02/06 11:16:17;;;;;;;;;;;18.40;64.40;;;;;;5020466;28;915;-72
2024/02/06 11:18:43;;;;;;;;;;;18.40;64.50;;;;;;5017461;28;1371;-72
2024/02/06 11:21:09;;;;;;;;;;;18.40;64.50;;;;;;5019783;28;1293;-73
2024/02/06 11:23:35;;;;;;;;;;;18.40;64.50;;;;;;5002316;28;1863;-72
2024/02/06 11:26:01;;;;;;;;;;;18.40;64.50;;;;;;5016774;28;1948;-72
2024/02/06 11:28:27;;;;;;;;;;;18.40;64.50;;;;;;5019017;28;1366;-72
2024/02/06 11:30:59;;;;;;;;;;;18.40;64.50;;;;;;5019534;28;1570;-72
2024/02/06 11:33:31;;;;;;;;;;;18.40;64.60;;;;;;5017768;28;1902;-72
2024/02/06 11:36:09;;;;;;;;;;;18.40;64.60;;;;;;5017144;28;1352;-72
2024/02/06 11:38:34;;;;;;;;;;;18.40;65.00;;;;;;5019971;28;1272;-73
2024/02/06 11:41:10;;;;;;;;;;;18.40;64.70;;;;;;5018777;28;1257;-73
2024/02/06 11:43:36;;;;;;;;;;;18.30;64.60;;;;;;5017637;28;1331;-70
2024/02/06 11:46:03;;;;;;;;;;;18.30;64.70;;;;;;5018774;28;1257;-71
2024/02/06 11:48:28;;;;;;;;;;;18.30;64.70;;;;;;5019441;28;1612;-71
2024/02/06 11:50:54;;;;;;;;;;;18.30;64.80;;;;;;5019270;28;1407;-70
2024/02/06 11:53:24;;;;;;;;;;;18.30;64.70;;;;;;5018096;28;1944;-72
2024/02/06 11:55:50;;;;;;;;;;;18.30;64.70;;;;;;5019639;28;1337;-72
2024/02/06 11:58:16;;;;;;;;;;;18.30;64.70;;;;;;5021616;28;1376;-72
2024/02/06 12:00:41;;;;;;;;;;;18.40;64.70;;;;;;5026751;28;1513;-72
2024/02/06 12:03:06;;;;;;;;;;;18.30;64.60;;;;;;5027672;28;1570;-72
2024/02/06 12:05:41;;;;;;;;;;;18.40;64.60;;;;;;5020862;28;1425;-71
2024/02/06 12:08:06;;;;;;;;;;;18.40;64.50;;;;;;5019263;28;1657;-70
2024/02/06 12:10:32;;;;;;;;;;;18.40;64.50;;;;;;5017514;28;1131;-71
2024/02/06 12:13:04;;;;;;;;;;;18.40;64.50;;;;;;5027543;28;1322;-72
2024/02/06 12:15:30;;;;;;;;;;;18.40;64.40;;;;;;5019845;28;1541;-71
2024/02/06 12:17:55;;;;;;;;;;;18.40;64.40;;;;;;5018061;28;1499;-72
2024/02/06 12:20:21;;;;;;;;;;;18.40;64.30;;;;;;5019925;28;1458;-71
2024/02/06 12:23:03;;;;;;;;;;;18.40;65.10;;;;;;5021824;28;1331;-71
2024/02/06 12:25:29;;;;;;;;;;;18.40;64.30;;;;;;5019405;28;1126;-72
2024/02/06 12:27:59;;;;;;;;;;;18.40;64.30;;;;;;5021294;28;1478;-71
2024/02/06 12:30:30;;;;;;;;;;;18.40;64.30;;;;;;5023851;28;1950;-73
2024/02/06 12:33:01;;;;;;;;;;;18.40;64.30;;;;;;5018287;28;1326;-73
2024/02/06 12:35:27;;;;;;;;;;;18.40;64.30;;;;;;5018395;28;1622;-73
2024/02/06 12:37:59;;;;;;;;;;;18.40;64.30;;;;;;5001700;28;1636;-72
2024/02/06 12:40:27;;;;;;;;;;;18.40;64.40;;;;;;5049441;28;1537;-71
2024/02/06 12:42:53;;;;;;;;;;;18.40;64.30;;;;;;5022272;28;1537;-72
2024/02/06 12:45:18;;;;;;;;;;;18.40;64.30;;;;;;5019573;28;883;-72
2024/02/06 12:47:44;;;;;;;;;;;18.40;64.30;;;;;;5018579;28;1398;-71
2024/02/06 12:50:11;;;;;;;;;;;18.40;64.30;;;;;;5022649;28;808;-71
2024/02/06 12:52:41;;;;;;;;;;;18.40;64.30;;;;;;5022164;28;1296;-71
2024/02/06 12:55:11;;;;;;;;;;;18.40;64.20;;;;;;5021340;28;1977;-71
2024/02/06 12:57:36;;;;;;;;;;;18.50;64.30;;;;;;5015690;28;1468;-70
2024/02/06 13:00:03;;;;;;;;;;;18.50;64.10;;;;;;5023404;28;1386;-70
2024/02/06 13:02:28;;;;;;;;;;;18.50;64.10;;;;;;5022181;28;1388;-70
2024/02/06 13:04:54;;;;;;;;;;;18.50;64.00;;;;;;5022692;28;1267;-71
2024/02/06 13:07:24;;;;;;;;;;;18.50;64.70;;;;;;5006877;28;1202;-71
2024/02/06 13:09:59;;;;;;;;;;;18.50;64.00;;;;;;5023379;28;830;-70
2024/02/06 13:12:25;;;;;;;;;;;18.50;63.90;;;;;;5023752;28;1353;-70
2024/02/06 13:14:51;;;;;;;;;;;18.50;63.90;;;;;;5026038;28;1973;-71
2024/02/06 13:17:20;;;;;;;;;;;18.50;63.90;;;;;;5022578;28;1603;-71
2024/02/06 13:19:45;;;;;;;;;;;18.50;63.90;;;;;;5004635;28;1463;-71
2024/02/06 13:22:11;;;;;;;;;;;18.50;63.90;;;;;;5017392;28;1420;-71
2024/02/06 13:24:37;;;;;;;;;;;18.50;64.00;;;;;;5028568;28;1307;-71
2024/02/06 13:27:03;;;;;;;;;;;18.50;64.00;;;;;;5019704;28;1322;-71
2024/02/06 13:29:35;;;;;;;;;;;18.50;64.00;;;;;;5021193;28;1369;-71
2024/02/06 13:32:00;;;;;;;;;;;18.50;64.00;;;;;;5019738;28;1550;-71
2024/02/06 13:34:26;;;;;;;;;;;18.50;64.00;;;;;;5021332;28;1961;-72
2024/02/06 13:36:51;;;;;;;;;;;18.50;64.10;;;;;;5027690;28;1669;-71
2024/02/06 13:39:17;;;;;;;;;;;18.50;64.10;;;;;;5023483;28;1264;-73
2024/02/06 13:41:43;;;;;;;;;;;18.50;64.10;;;;;;5030693;28;1183;-71
2024/02/06 13:44:10;;;;;;;;;;;18.40;64.10;;;;;;5027350;28;888;-71
2024/02/06 13:46:35;;;;;;;;;;;18.40;64.10;;;;;;5027160;28;1025;-71
2024/02/06 13:49:01;;;;;;;;;;;18.40;64.10;;;;;;5022593;28;1310;-76
2024/02/06 13:51:27;;;;;;;;;;;18.40;64.20;;;;;;5026711;28;848;-70
2024/02/06 13:53:52;;;;;;;;;;;18.40;64.20;;;;;;5025462;28;1971;-70
2024/02/06 13:56:18;;;;;;;;;;;18.40;64.20;;;;;;5018154;28;888;-71
2024/02/06 13:58:43;;;;;;;;;;;18.40;64.30;;;;;;5029050;28;1264;-72
2024/02/06 14:01:09;;;;;;;;;;;18.40;64.30;;;;;;5025947;28;1577;-72
2024/02/06 14:03:36;;;;;;;;;;;18.40;64.30;;;;;;5049660;28;1608;-73
2024/02/06 14:06:02;;;;;;;;;;;18.40;64.30;;;;;;5016383;28;1273;-72
2024/02/06 14:08:27;;;;;;;;;;;18.40;64.30;;;;;;5020847;28;1464;-72
2024/02/06 14:10:55;;;;;;;;;;;18.40;64.40;;;;;;5018885;28;1254;-73
2024/02/06 14:13:20;;;;;;;;;;;18.40;64.30;;;;;;5019237;28;1909;-73
2024/02/06 14:15:46;;;;;;;;;;;18.40;64.40;;;;;;5018667;28;1066;-72
2024/02/06 14:18:12;;;;;;;;;;;18.40;64.40;;;;;;5021333;28;1411;-72
2024/02/06 14:20:37;;;;;;;;;;;18.40;64.40;;;;;;5019821;28;1554;-73
2024/02/06 14:23:04;;;;;;;;;;;18.30;64.40;;;;;;5025343;28;1014;-72
2024/02/06 14:25:30;;;;;;;;;;;18.30;64.40;;;;;;5031146;28;1085;-72